sensor_id;sensor_type;location;lat;lon;timestamp;P1;durP1;ratioP1;P2;durP2;ratioP2
793;SDS011;380;48.738;9.214;2023-04-21T00:00:00;10.50;;;7.93;;
793;SDS011;380;48.738;9.214;2023-04-21T00:02:26;9.85;;;7.90;;
793;SDS011;380;48.738;9.214;2023-04-21T00:04:52;8.98;;;7.00;;
793;SDS011;380;48.738;9.214;2023-04-21T00:07:20;11.05;;;8.15;;
793;SDS011;380;48.738;9.214;2023-04-21T00:09:46;9.80;;;7.88;;
793;SDS011;380;48.738;9.214;2023-04-21T00:12:12;11.15;;;8.48;;
793;SDS011;380;48.738;9.214;2023-04-21T00:14:38;12.40;;;8.55;;
793;SDS011;380;48.738;9.214;2023-04-21T00:17:04;7.95;;;6.30;;
793;SDS011;380;48.738;9.214;2023-04-21T00:19:30;9.73;;;8.63;;
793;SDS011;380;48.738;9.214;2023-04-21T00:21:57;10.57;;;9.38;;
793;SDS011;380;48.738;9.214;2023-04-21T00:24:25;12.48;;;10.13;;
793;SDS011;380;48.738;9.214;2023-04-21T00:26:51;11.63;;;9.73;;
793;SDS011;380;48.738;9.214;2023-04-21T00:29:17;14.25;;;11.45;;
793;SDS011;380;48.738;9.214;2023-04-21T00:31:43;13.55;;;11.00;;
793;SDS011;380;48.738;9.214;2023-04-21T00:34:09;14.13;;;11.27;;
793;SDS011;380;48.738;9.214;2023-04-21T00:36:35;13.07;;;11.77;;
793;SDS011;380;48.738;9.214;2023-04-21T00:39:01;14.77;;;11.60;;
793;SDS011;380;48.738;9.214;2023-04-21T00:41:27;16.58;;;13.02;;
793;SDS011;380;48.738;9.214;2023-04-21T00:44:00;16.05;;;13.85;;
793;SDS011;380;48.738;9.214;2023-04-21T00:46:27;17.98;;;15.30;;
793;SDS011;380;48.738;9.214;2023-04-21T00:48:52;16.88;;;15.10;;
793;SDS011;380;48.738;9.214;2023-04-21T00:51:18;21.05;;;14.68;;
793;SDS011;380;48.738;9.214;2023-04-21T00:53:44;15.15;;;13.13;;
793;SDS011;380;48.738;9.214;2023-04-21T00:56:10;19.52;;;14.98;;
793;SDS011;380;48.738;9.214;2023-04-21T00:58:37;17.00;;;14.15;;
793;SDS011;380;48.738;9.214;2023-04-21T01:01:04;16.85;;;14.02;;
793;SDS011;380;48.738;9.214;2023-04-21T01:03:30;17.48;;;14.63;;
793;SDS011;380;48.738;9.214;2023-04-21T01:05:56;17.98;;;14.82;;
793;SDS011;380;48.738;9.214;2023-04-21T01:08:22;18.48;;;13.60;;
793;SDS011;380;48.738;9.214;2023-04-21T01:10:48;16.83;;;13.70;;
793;SDS011;380;48.738;9.214;2023-04-21T01:13:14;14.93;;;12.38;;
793;SDS011;380;48.738;9.214;2023-04-21T01:15:40;15.98;;;14.20;;
793;SDS011;380;48.738;9.214;2023-04-21T01:18:06;15.73;;;12.32;;
793;SDS011;380;48.738;9.214;2023-04-21T01:20:32;19.33;;;15.00;;
793;SDS011;380;48.738;9.214;2023-04-21T01:22:58;16.20;;;14.25;;
793;SDS011;380;48.738;9.214;2023-04-21T01:25:24;15.57;;;13.32;;
793;SDS011;380;48.738;9.214;2023-04-21T01:27:52;20.52;;;14.27;;
793;SDS011;380;48.738;9.214;2023-04-21T01:30:18;18.65;;;14.85;;
793;SDS011;380;48.738;9.214;2023-04-21T01:32:44;14.68;;;12.25;;
793;SDS011;380;48.738;9.214;2023-04-21T01:35:10;16.42;;;13.73;;
793;SDS011;380;48.738;9.214;2023-04-21T01:37:36;20.90;;;13.25;;
793;SDS011;380;48.738;9.214;2023-04-21T01:40:04;15.15;;;11.07;;
793;SDS011;380;48.738;9.214;2023-04-21T01:42:31;16.38;;;12.18;;
793;SDS011;380;48.738;9.214;2023-04-21T01:44:58;15.82;;;12.90;;
793;SDS011;380;48.738;9.214;2023-04-21T01:47:24;15.52;;;12.90;;
793;SDS011;380;48.738;9.214;2023-04-21T01:49:50;18.80;;;14.45;;
793;SDS011;380;48.738;9.214;2023-04-21T01:52:16;18.33;;;13.45;;
793;SDS011;380;48.738;9.214;2023-04-21T01:54:42;20.08;;;13.88;;
793;SDS011;380;48.738;9.214;2023-04-21T01:57:08;15.73;;;11.80;;
793;SDS011;380;48.738;9.214;2023-04-21T01:59:34;14.32;;;12.75;;
793;SDS011;380;48.738;9.214;2023-04-21T02:02:00;15.57;;;12.48;;
793;SDS011;380;48.738;9.214;2023-04-21T02:04:27;16.92;;;14.48;;
793;SDS011;380;48.738;9.214;2023-04-21T02:06:52;15.25;;;12.60;;
793;SDS011;380;48.738;9.214;2023-04-21T02:09:19;14.43;;;11.77;;
793;SDS011;380;48.738;9.214;2023-04-21T02:11:44;13.77;;;11.95;;
793;SDS011;380;48.738;9.214;2023-04-21T02:14:10;16.73;;;11.93;;
793;SDS011;380;48.738;9.214;2023-04-21T02:16:36;13.07;;;11.32;;
793;SDS011;380;48.738;9.214;2023-04-21T02:19:02;12.60;;;11.25;;
793;SDS011;380;48.738;9.214;2023-04-21T02:21:30;16.00;;;13.02;;
793;SDS011;380;48.738;9.214;2023-04-21T02:23:56;13.68;;;12.27;;
793;SDS011;380;48.738;9.214;2023-04-21T02:26:22;14.30;;;11.77;;
793;SDS011;380;48.738;9.214;2023-04-21T02:28:48;14.80;;;13.13;;
793;SDS011;380;48.738;9.214;2023-04-21T02:31:15;14.48;;;11.02;;
793;SDS011;380;48.738;9.214;2023-04-21T02:33:41;14.10;;;11.27;;
793;SDS011;380;48.738;9.214;2023-04-21T02:36:07;16.63;;;12.90;;
793;SDS011;380;48.738;9.214;2023-04-21T02:38:33;16.33;;;12.93;;
793;SDS011;380;48.738;9.214;2023-04-21T02:40:59;13.25;;;11.45;;
793;SDS011;380;48.738;9.214;2023-04-21T02:43:25;16.10;;;12.57;;
793;SDS011;380;48.738;9.214;2023-04-21T02:45:51;14.20;;;12.00;;
793;SDS011;380;48.738;9.214;2023-04-21T02:48:17;15.20;;;12.48;;
793;SDS011;380;48.738;9.214;2023-04-21T02:50:49;12.43;;;11.07;;
793;SDS011;380;48.738;9.214;2023-04-21T02:53:17;13.50;;;11.55;;
793;SDS011;380;48.738;9.214;2023-04-21T02:55:42;17.55;;;13.32;;
793;SDS011;380;48.738;9.214;2023-04-21T02:58:08;13.85;;;12.25;;
793;SDS011;380;48.738;9.214;2023-04-21T03:00:35;16.00;;;11.65;;
793;SDS011;380;48.738;9.214;2023-04-21T03:03:01;14.80;;;12.60;;
793;SDS011;380;48.738;9.214;2023-04-21T03:05:26;13.82;;;12.35;;
793;SDS011;380;48.738;9.214;2023-04-21T03:07:52;17.75;;;11.57;;
793;SDS011;380;48.738;9.214;2023-04-21T03:10:18;14.82;;;11.73;;
793;SDS011;380;48.738;9.214;2023-04-21T03:12:45;16.20;;;11.93;;
793;SDS011;380;48.738;9.214;2023-04-21T03:15:11;16.90;;;12.02;;
793;SDS011;380;48.738;9.214;2023-04-21T03:17:38;13.93;;;12.10;;
793;SDS011;380;48.738;9.214;2023-04-21T03:20:04;14.07;;;12.40;;
793;SDS011;380;48.738;9.214;2023-04-21T03:22:31;13.93;;;11.32;;
793;SDS011;380;48.738;9.214;2023-04-21T03:24:57;16.33;;;12.43;;
793;SDS011;380;48.738;9.214;2023-04-21T03:27:23;16.17;;;13.50;;
793;SDS011;380;48.738;9.214;2023-04-21T03:29:49;18.60;;;12.60;;
793;SDS011;380;48.738;9.214;2023-04-21T03:32:15;13.02;;;11.63;;
793;SDS011;380;48.738;9.214;2023-04-21T03:34:41;16.02;;;11.98;;
793;SDS011;380;48.738;9.214;2023-04-21T03:37:07;15.25;;;12.13;;
793;SDS011;380;48.738;9.214;2023-04-21T03:39:33;17.75;;;14.02;;
793;SDS011;380;48.738;9.214;2023-04-21T03:41:59;15.70;;;12.07;;
793;SDS011;380;48.738;9.214;2023-04-21T03:44:26;13.55;;;12.10;;
793;SDS011;380;48.738;9.214;2023-04-21T03:46:52;14.95;;;11.85;;
793;SDS011;380;48.738;9.214;2023-04-21T03:49:19;16.70;;;11.52;;
793;SDS011;380;48.738;9.214;2023-04-21T03:51:45;14.63;;;12.13;;
793;SDS011;380;48.738;9.214;2023-04-21T03:54:11;17.50;;;12.43;;
793;SDS011;380;48.738;9.214;2023-04-21T03:56:37;15.20;;;12.18;;
793;SDS011;380;48.738;9.214;2023-04-21T03:59:03;23.48;;;15.45;;
793;SDS011;380;48.738;9.214;2023-04-21T04:01:30;16.40;;;12.52;;
793;SDS011;380;48.738;9.214;2023-04-21T04:03:56;14.13;;;11.50;;
793;SDS011;380;48.738;9.214;2023-04-21T04:06:22;18.95;;;12.82;;
793;SDS011;380;48.738;9.214;2023-04-21T04:08:47;13.55;;;12.15;;
793;SDS011;380;48.738;9.214;2023-04-21T04:11:13;19.85;;;14.43;;
793;SDS011;380;48.738;9.214;2023-04-21T04:13:39;16.80;;;14.63;;
793;SDS011;380;48.738;9.214;2023-04-21T04:16:05;18.58;;;15.18;;
793;SDS011;380;48.738;9.214;2023-04-21T04:18:31;17.00;;;14.45;;
793;SDS011;380;48.738;9.214;2023-04-21T04:20:57;19.13;;;14.27;;
793;SDS011;380;48.738;9.214;2023-04-21T04:23:23;20.55;;;15.05;;
793;SDS011;380;48.738;9.214;2023-04-21T04:25:50;15.65;;;14.00;;
793;SDS011;380;48.738;9.214;2023-04-21T04:28:16;15.82;;;14.20;;
793;SDS011;380;48.738;9.214;2023-04-21T04:30:42;19.08;;;14.90;;
793;SDS011;380;48.738;9.214;2023-04-21T04:33:09;19.52;;;15.63;;
793;SDS011;380;48.738;9.214;2023-04-21T04:35:35;19.33;;;15.15;;
793;SDS011;380;48.738;9.214;2023-04-21T04:38:01;19.63;;;13.38;;
793;SDS011;380;48.738;9.214;2023-04-21T04:40:28;20.23;;;16.30;;
793;SDS011;380;48.738;9.214;2023-04-21T04:42:54;16.40;;;14.63;;
793;SDS011;380;48.738;9.214;2023-04-21T04:45:20;18.10;;;14.52;;
793;SDS011;380;48.738;9.214;2023-04-21T04:47:47;22.65;;;15.15;;
793;SDS011;380;48.738;9.214;2023-04-21T04:50:13;18.88;;;13.73;;
793;SDS011;380;48.738;9.214;2023-04-21T04:52:39;19.20;;;15.00;;
793;SDS011;380;48.738;9.214;2023-04-21T04:55:06;21.92;;;15.88;;
793;SDS011;380;48.738;9.214;2023-04-21T04:57:32;16.35;;;14.02;;
793;SDS011;380;48.738;9.214;2023-04-21T04:59:58;30.33;;;21.17;;
793;SDS011;380;48.738;9.214;2023-04-21T05:02:24;20.10;;;17.95;;
793;SDS011;380;48.738;9.214;2023-04-21T05:04:50;24.55;;;18.98;;
793;SDS011;380;48.738;9.214;2023-04-21T05:07:16;17.25;;;15.38;;
793;SDS011;380;48.738;9.214;2023-04-21T05:09:42;16.30;;;13.43;;
793;SDS011;380;48.738;9.214;2023-04-21T05:12:08;18.13;;;13.07;;
793;SDS011;380;48.738;9.214;2023-04-21T05:14:34;13.85;;;11.85;;
793;SDS011;380;48.738;9.214;2023-04-21T05:17:00;15.98;;;14.18;;
793;SDS011;380;48.738;9.214;2023-04-21T05:19:26;17.05;;;14.07;;
793;SDS011;380;48.738;9.214;2023-04-21T05:21:52;15.98;;;14.23;;
793;SDS011;380;48.738;9.214;2023-04-21T05:24:24;20.05;;;15.15;;
793;SDS011;380;48.738;9.214;2023-04-21T05:26:50;18.15;;;13.27;;
793;SDS011;380;48.738;9.214;2023-04-21T05:29:16;19.75;;;13.40;;
793;SDS011;380;48.738;9.214;2023-04-21T05:31:42;18.65;;;12.80;;
793;SDS011;380;48.738;9.214;2023-04-21T05:34:08;16.00;;;12.93;;
793;SDS011;380;48.738;9.214;2023-04-21T05:36:34;19.75;;;15.05;;
793;SDS011;380;48.738;9.214;2023-04-21T05:39:00;19.00;;;15.75;;
793;SDS011;380;48.738;9.214;2023-04-21T05:41:26;16.15;;;13.20;;
793;SDS011;380;48.738;9.214;2023-04-21T05:43:52;18.08;;;12.65;;
793;SDS011;380;48.738;9.214;2023-04-21T05:46:17;19.60;;;14.32;;
793;SDS011;380;48.738;9.214;2023-04-21T05:48:43;17.25;;;13.98;;
793;SDS011;380;48.738;9.214;2023-04-21T05:51:10;22.30;;;13.77;;
793;SDS011;380;48.738;9.214;2023-04-21T05:53:37;18.98;;;15.55;;
793;SDS011;380;48.738;9.214;2023-04-21T05:56:03;16.73;;;13.15;;
793;SDS011;380;48.738;9.214;2023-04-21T05:58:29;21.55;;;16.23;;
793;SDS011;380;48.738;9.214;2023-04-21T06:00:55;15.57;;;12.85;;
793;SDS011;380;48.738;9.214;2023-04-21T06:03:21;25.00;;;14.35;;
793;SDS011;380;48.738;9.214;2023-04-21T06:05:51;20.13;;;14.07;;
793;SDS011;380;48.738;9.214;2023-04-21T06:08:17;19.75;;;14.93;;
793;SDS011;380;48.738;9.214;2023-04-21T06:10:43;18.45;;;13.50;;
793;SDS011;380;48.738;9.214;2023-04-21T06:13:09;16.75;;;14.15;;
793;SDS011;380;48.738;9.214;2023-04-21T06:15:35;19.85;;;15.05;;
793;SDS011;380;48.738;9.214;2023-04-21T06:18:01;17.92;;;14.93;;
793;SDS011;380;48.738;9.214;2023-04-21T06:20:27;23.17;;;16.95;;
793;SDS011;380;48.738;9.214;2023-04-21T06:22:53;20.02;;;14.63;;
793;SDS011;380;48.738;9.214;2023-04-21T06:25:19;21.30;;;14.98;;
793;SDS011;380;48.738;9.214;2023-04-21T06:27:45;19.52;;;13.80;;
793;SDS011;380;48.738;9.214;2023-04-21T06:30:12;19.48;;;14.70;;
793;SDS011;380;48.738;9.214;2023-04-21T06:32:38;20.33;;;15.70;;
793;SDS011;380;48.738;9.214;2023-04-21T06:35:04;20.33;;;16.23;;
793;SDS011;380;48.738;9.214;2023-04-21T06:37:30;17.20;;;13.40;;
793;SDS011;380;48.738;9.214;2023-04-21T06:39:56;21.13;;;13.75;;
793;SDS011;380;48.738;9.214;2023-04-21T06:42:22;21.45;;;15.13;;
793;SDS011;380;48.738;9.214;2023-04-21T06:44:48;23.15;;;14.98;;
793;SDS011;380;48.738;9.214;2023-04-21T06:47:15;19.33;;;15.60;;
793;SDS011;380;48.738;9.214;2023-04-21T06:49:41;16.80;;;12.35;;
793;SDS011;380;48.738;9.214;2023-04-21T06:52:07;18.40;;;13.73;;
793;SDS011;380;48.738;9.214;2023-04-21T06:54:33;18.95;;;14.23;;
793;SDS011;380;48.738;9.214;2023-04-21T06:56:59;21.67;;;14.25;;
793;SDS011;380;48.738;9.214;2023-04-21T06:59:26;18.15;;;13.88;;
793;SDS011;380;48.738;9.214;2023-04-21T07:01:52;18.25;;;13.35;;
793;SDS011;380;48.738;9.214;2023-04-21T07:04:18;16.58;;;14.30;;
793;SDS011;380;48.738;9.214;2023-04-21T07:06:44;14.10;;;11.60;;
793;SDS011;380;48.738;9.214;2023-04-21T07:09:10;14.48;;;10.00;;
793;SDS011;380;48.738;9.214;2023-04-21T07:11:36;19.25;;;12.98;;
793;SDS011;380;48.738;9.214;2023-04-21T07:14:02;22.02;;;13.25;;
793;SDS011;380;48.738;9.214;2023-04-21T07:16:28;16.08;;;12.00;;
793;SDS011;380;48.738;9.214;2023-04-21T07:18:54;14.63;;;11.18;;
793;SDS011;380;48.738;9.214;2023-04-21T07:21:20;15.68;;;12.05;;
793;SDS011;380;48.738;9.214;2023-04-21T07:23:46;14.68;;;11.82;;
793;SDS011;380;48.738;9.214;2023-04-21T07:26:12;16.98;;;11.57;;
793;SDS011;380;48.738;9.214;2023-04-21T07:28:38;14.73;;;11.35;;
793;SDS011;380;48.738;9.214;2023-04-21T07:31:04;10.20;;;9.07;;
793;SDS011;380;48.738;9.214;2023-04-21T07:33:31;11.73;;;9.30;;
793;SDS011;380;48.738;9.214;2023-04-21T07:35:57;12.85;;;10.63;;
793;SDS011;380;48.738;9.214;2023-04-21T07:38:23;10.23;;;8.55;;
793;SDS011;380;48.738;9.214;2023-04-21T07:40:49;12.80;;;9.82;;
793;SDS011;380;48.738;9.214;2023-04-21T07:43:15;10.27;;;8.30;;
793;SDS011;380;48.738;9.214;2023-04-21T07:45:43;12.38;;;8.60;;
793;SDS011;380;48.738;9.214;2023-04-21T07:48:09;11.82;;;9.23;;
793;SDS011;380;48.738;9.214;2023-04-21T07:50:35;11.68;;;9.27;;
793;SDS011;380;48.738;9.214;2023-04-21T07:53:01;12.65;;;10.82;;
793;SDS011;380;48.738;9.214;2023-04-21T07:55:28;16.77;;;12.48;;
793;SDS011;380;48.738;9.214;2023-04-21T07:57:54;16.10;;;12.05;;
793;SDS011;380;48.738;9.214;2023-04-21T08:00:20;13.00;;;10.55;;
793;SDS011;380;48.738;9.214;2023-04-21T08:02:46;13.00;;;10.73;;
793;SDS011;380;48.738;9.214;2023-04-21T08:05:12;14.32;;;11.27;;
793;SDS011;380;48.738;9.214;2023-04-21T08:07:38;11.95;;;10.70;;
793;SDS011;380;48.738;9.214;2023-04-21T08:10:05;14.13;;;11.18;;
793;SDS011;380;48.738;9.214;2023-04-21T08:12:31;11.80;;;10.10;;
793;SDS011;380;48.738;9.214;2023-04-21T08:14:57;12.52;;;9.63;;
793;SDS011;380;48.738;9.214;2023-04-21T08:17:23;12.60;;;9.57;;
793;SDS011;380;48.738;9.214;2023-04-21T08:19:49;10.98;;;8.25;;
793;SDS011;380;48.738;9.214;2023-04-21T08:22:16;10.43;;;8.90;;
793;SDS011;380;48.738;9.214;2023-04-21T08:24:42;11.43;;;8.43;;
793;SDS011;380;48.738;9.214;2023-04-21T08:27:08;11.57;;;8.68;;
793;SDS011;380;48.738;9.214;2023-04-21T08:29:34;7.88;;;7.05;;
793;SDS011;380;48.738;9.214;2023-04-21T08:31:59;11.23;;;9.23;;
793;SDS011;380;48.738;9.214;2023-04-21T08:34:25;8.95;;;8.05;;
793;SDS011;380;48.738;9.214;2023-04-21T08:36:51;9.95;;;8.70;;
793;SDS011;380;48.738;9.214;2023-04-21T08:39:17;9.20;;;7.43;;
793;SDS011;380;48.738;9.214;2023-04-21T08:41:43;10.18;;;7.13;;
793;SDS011;380;48.738;9.214;2023-04-21T08:44:09;8.00;;;6.70;;
793;SDS011;380;48.738;9.214;2023-04-21T08:46:35;10.10;;;8.00;;
793;SDS011;380;48.738;9.214;2023-04-21T08:49:02;12.65;;;7.75;;
793;SDS011;380;48.738;9.214;2023-04-21T08:51:28;8.27;;;6.68;;
793;SDS011;380;48.738;9.214;2023-04-21T08:53:55;8.07;;;7.10;;
793;SDS011;380;48.738;9.214;2023-04-21T08:56:23;15.18;;;8.70;;
793;SDS011;380;48.738;9.214;2023-04-21T08:58:50;9.00;;;7.00;;
793;SDS011;380;48.738;9.214;2023-04-21T09:01:16;13.27;;;7.10;;
793;SDS011;380;48.738;9.214;2023-04-21T09:03:42;11.95;;;7.20;;
793;SDS011;380;48.738;9.214;2023-04-21T09:06:08;9.18;;;6.95;;
793;SDS011;380;48.738;9.214;2023-04-21T09:08:37;6.90;;;6.05;;
793;SDS011;380;48.738;9.214;2023-04-21T09:11:04;12.75;;;7.15;;
793;SDS011;380;48.738;9.214;2023-04-21T09:15:56;9.63;;;7.50;;
793;SDS011;380;48.738;9.214;2023-04-21T09:18:23;13.57;;;8.02;;
793;SDS011;380;48.738;9.214;2023-04-21T09:20:50;8.40;;;6.13;;
793;SDS011;380;48.738;9.214;2023-04-21T09:23:17;9.50;;;7.45;;
793;SDS011;380;48.738;9.214;2023-04-21T09:25:43;5.78;;;4.63;;
793;SDS011;380;48.738;9.214;2023-04-21T09:28:13;4.13;;;2.97;;
793;SDS011;380;48.738;9.214;2023-04-21T09:30:40;5.15;;;2.92;;
793;SDS011;380;48.738;9.214;2023-04-21T09:33:07;5.57;;;3.45;;
793;SDS011;380;48.738;9.214;2023-04-21T09:35:34;6.30;;;4.53;;
793;SDS011;380;48.738;9.214;2023-04-21T09:38:00;4.43;;;3.50;;
793;SDS011;380;48.738;9.214;2023-04-21T09:40:28;7.43;;;6.03;;
793;SDS011;380;48.738;9.214;2023-04-21T09:42:54;7.20;;;5.13;;
793;SDS011;380;48.738;9.214;2023-04-21T09:45:21;5.63;;;4.93;;
793;SDS011;380;48.738;9.214;2023-04-21T09:47:49;8.40;;;5.78;;
793;SDS011;380;48.738;9.214;2023-04-21T09:50:16;8.20;;;6.63;;
793;SDS011;380;48.738;9.214;2023-04-21T09:52:42;7.78;;;5.40;;
793;SDS011;380;48.738;9.214;2023-04-21T09:55:11;8.27;;;6.70;;
793;SDS011;380;48.738;9.214;2023-04-21T09:57:38;11.07;;;6.80;;
793;SDS011;380;48.738;9.214;2023-04-21T10:00:05;7.72;;;5.95;;
793;SDS011;380;48.738;9.214;2023-04-21T10:02:36;6.68;;;5.68;;
793;SDS011;380;48.738;9.214;2023-04-21T10:05:05;8.97;;;6.33;;
793;SDS011;380;48.738;9.214;2023-04-21T10:07:31;6.90;;;6.03;;
793;SDS011;380;48.738;9.214;2023-04-21T10:09:58;9.98;;;5.90;;
793;SDS011;380;48.738;9.214;2023-04-21T10:12:25;9.40;;;5.80;;
793;SDS011;380;48.738;9.214;2023-04-21T10:14:52;6.85;;;5.93;;
793;SDS011;380;48.738;9.214;2023-04-21T10:17:21;7.80;;;5.70;;
793;SDS011;380;48.738;9.214;2023-04-21T10:19:50;7.90;;;6.88;;
793;SDS011;380;48.738;9.214;2023-04-21T10:22:25;8.45;;;5.85;;
793;SDS011;380;48.738;9.214;2023-04-21T10:24:53;6.82;;;6.05;;
793;SDS011;380;48.738;9.214;2023-04-21T10:27:33;7.88;;;6.28;;
793;SDS011;380;48.738;9.214;2023-04-21T10:29:59;28.98;;;9.52;;
793;SDS011;380;48.738;9.214;2023-04-21T10:32:38;10.35;;;8.10;;
793;SDS011;380;48.738;9.214;2023-04-21T10:35:08;7.93;;;6.60;;
793;SDS011;380;48.738;9.214;2023-04-21T10:37:35;9.60;;;7.75;;
793;SDS011;380;48.738;9.214;2023-04-21T10:40:01;9.63;;;8.15;;
793;SDS011;380;48.738;9.214;2023-04-21T10:42:33;11.23;;;7.63;;
793;SDS011;380;48.738;9.214;2023-04-21T10:45:01;7.63;;;5.90;;
793;SDS011;380;48.738;9.214;2023-04-21T10:47:37;10.73;;;7.97;;
793;SDS011;380;48.738;9.214;2023-04-21T10:50:24;13.15;;;8.93;;
793;SDS011;380;48.738;9.214;2023-04-21T10:53:11;9.18;;;6.47;;
793;SDS011;380;48.738;9.214;2023-04-21T10:55:38;9.35;;;7.20;;
793;SDS011;380;48.738;9.214;2023-04-21T10:58:06;12.30;;;6.50;;
793;SDS011;380;48.738;9.214;2023-04-21T11:00:36;7.70;;;6.25;;
793;SDS011;380;48.738;9.214;2023-04-21T11:03:05;7.25;;;6.00;;
793;SDS011;380;48.738;9.214;2023-04-21T11:05:33;10.43;;;6.50;;
793;SDS011;380;48.738;9.214;2023-04-21T11:08:07;8.65;;;6.80;;
793;SDS011;380;48.738;9.214;2023-04-21T11:13:25;7.95;;;7.00;;
793;SDS011;380;48.738;9.214;2023-04-21T11:15:54;6.88;;;6.07;;
793;SDS011;380;48.738;9.214;2023-04-21T11:18:20;6.97;;;4.43;;
793;SDS011;380;48.738;9.214;2023-04-21T11:20:46;7.72;;;5.68;;
793;SDS011;380;48.738;9.214;2023-04-21T11:23:16;7.05;;;5.93;;
793;SDS011;380;48.738;9.214;2023-04-21T11:25:44;8.35;;;5.22;;
793;SDS011;380;48.738;9.214;2023-04-21T11:28:10;6.05;;;5.30;;
793;SDS011;380;48.738;9.214;2023-04-21T11:30:36;8.40;;;5.85;;
793;SDS011;380;48.738;9.214;2023-04-21T11:33:02;8.10;;;6.68;;
793;SDS011;380;48.738;9.214;2023-04-21T11:35:28;6.38;;;5.63;;
793;SDS011;380;48.738;9.214;2023-04-21T11:37:55;7.57;;;5.45;;
793;SDS011;380;48.738;9.214;2023-04-21T11:40:21;10.05;;;5.38;;
793;SDS011;380;48.738;9.214;2023-04-21T11:42:47;7.78;;;5.18;;
793;SDS011;380;48.738;9.214;2023-04-21T11:45:17;7.03;;;4.90;;
793;SDS011;380;48.738;9.214;2023-04-21T11:47:43;5.95;;;4.65;;
793;SDS011;380;48.738;9.214;2023-04-21T11:50:09;5.80;;;4.55;;
793;SDS011;380;48.738;9.214;2023-04-21T11:52:35;6.25;;;5.22;;
793;SDS011;380;48.738;9.214;2023-04-21T11:55:02;7.75;;;5.75;;
793;SDS011;380;48.738;9.214;2023-04-21T11:57:29;5.60;;;4.93;;
793;SDS011;380;48.738;9.214;2023-04-21T12:00:04;8.13;;;5.60;;
793;SDS011;380;48.738;9.214;2023-04-21T12:02:30;7.72;;;6.05;;
793;SDS011;380;48.738;9.214;2023-04-21T12:07:25;6.13;;;5.45;;
793;SDS011;380;48.738;9.214;2023-04-21T12:09:52;10.63;;;6.13;;
793;SDS011;380;48.738;9.214;2023-04-21T12:12:18;5.50;;;4.80;;
793;SDS011;380;48.738;9.214;2023-04-21T12:14:44;7.93;;;5.47;;
793;SDS011;380;48.738;9.214;2023-04-21T12:17:10;6.45;;;5.75;;
793;SDS011;380;48.738;9.214;2023-04-21T12:19:37;7.28;;;4.75;;
793;SDS011;380;48.738;9.214;2023-04-21T12:22:07;6.28;;;4.22;;
793;SDS011;380;48.738;9.214;2023-04-21T12:24:33;5.55;;;4.45;;
793;SDS011;380;48.738;9.214;2023-04-21T12:26:59;5.45;;;4.50;;
793;SDS011;380;48.738;9.214;2023-04-21T12:29:26;10.70;;;6.88;;
793;SDS011;380;48.738;9.214;2023-04-21T12:31:52;6.60;;;5.63;;
793;SDS011;380;48.738;9.214;2023-04-21T12:34:18;6.28;;;4.72;;
793;SDS011;380;48.738;9.214;2023-04-21T12:36:44;6.85;;;5.20;;
793;SDS011;380;48.738;9.214;2023-04-21T12:39:10;6.70;;;4.70;;
793;SDS011;380;48.738;9.214;2023-04-21T12:41:37;6.80;;;5.28;;
793;SDS011;380;48.738;9.214;2023-04-21T12:44:03;5.88;;;4.35;;
793;SDS011;380;48.738;9.214;2023-04-21T12:46:29;6.15;;;5.28;;
793;SDS011;380;48.738;9.214;2023-04-21T12:48:55;7.22;;;4.85;;
793;SDS011;380;48.738;9.214;2023-04-21T12:51:21;5.90;;;4.43;;
793;SDS011;380;48.738;9.214;2023-04-21T12:53:47;4.70;;;3.60;;
793;SDS011;380;48.738;9.214;2023-04-21T12:56:13;5.43;;;4.30;;
793;SDS011;380;48.738;9.214;2023-04-21T12:58:39;5.93;;;4.43;;
793;SDS011;380;48.738;9.214;2023-04-21T13:01:06;4.55;;;4.15;;
793;SDS011;380;48.738;9.214;2023-04-21T13:03:32;6.00;;;4.32;;
793;SDS011;380;48.738;9.214;2023-04-21T13:05:58;4.53;;;3.00;;
793;SDS011;380;48.738;9.214;2023-04-21T13:08:24;5.72;;;4.57;;
793;SDS011;380;48.738;9.214;2023-04-21T13:10:50;5.05;;;4.07;;
793;SDS011;380;48.738;9.214;2023-04-21T13:13:16;4.28;;;3.63;;
793;SDS011;380;48.738;9.214;2023-04-21T13:15:42;4.53;;;3.65;;
793;SDS011;380;48.738;9.214;2023-04-21T13:18:08;5.38;;;4.05;;
793;SDS011;380;48.738;9.214;2023-04-21T13:20:34;4.15;;;3.17;;
793;SDS011;380;48.738;9.214;2023-04-21T13:23:00;4.20;;;3.15;;
793;SDS011;380;48.738;9.214;2023-04-21T13:25:26;5.03;;;3.28;;
793;SDS011;380;48.738;9.214;2023-04-21T13:27:52;5.00;;;3.00;;
793;SDS011;380;48.738;9.214;2023-04-21T13:30:18;2.42;;;2.05;;
793;SDS011;380;48.738;9.214;2023-04-21T13:32:45;4.32;;;2.65;;
793;SDS011;380;48.738;9.214;2023-04-21T13:35:11;3.25;;;2.13;;
793;SDS011;380;48.738;9.214;2023-04-21T13:37:37;2.40;;;1.40;;
793;SDS011;380;48.738;9.214;2023-04-21T13:40:03;2.58;;;1.95;;
793;SDS011;380;48.738;9.214;2023-04-21T13:42:30;3.05;;;2.03;;
793;SDS011;380;48.738;9.214;2023-04-21T13:44:57;3.53;;;2.08;;
793;SDS011;380;48.738;9.214;2023-04-21T13:47:23;3.35;;;2.33;;
793;SDS011;380;48.738;9.214;2023-04-21T13:49:49;2.70;;;1.38;;
793;SDS011;380;48.738;9.214;2023-04-21T13:52:16;2.55;;;1.40;;
793;SDS011;380;48.738;9.214;2023-04-21T13:54:42;1.85;;;1.00;;
793;SDS011;380;48.738;9.214;2023-04-21T13:57:08;3.00;;;1.48;;
793;SDS011;380;48.738;9.214;2023-04-21T13:59:34;2.55;;;1.60;;
793;SDS011;380;48.738;9.214;2023-04-21T14:02:00;2.20;;;1.45;;
793;SDS011;380;48.738;9.214;2023-04-21T14:04:26;1.98;;;1.27;;
793;SDS011;380;48.738;9.214;2023-04-21T14:06:52;4.15;;;1.73;;
793;SDS011;380;48.738;9.214;2023-04-21T14:09:18;3.83;;;1.65;;
793;SDS011;380;48.738;9.214;2023-04-21T14:11:44;1.77;;;1.20;;
793;SDS011;380;48.738;9.214;2023-04-21T14:14:10;3.28;;;1.77;;
793;SDS011;380;48.738;9.214;2023-04-21T14:16:36;2.47;;;1.27;;
793;SDS011;380;48.738;9.214;2023-04-21T14:19:02;2.40;;;1.50;;
793;SDS011;380;48.738;9.214;2023-04-21T14:21:28;2.22;;;1.50;;
793;SDS011;380;48.738;9.214;2023-04-21T14:23:57;2.90;;;1.80;;
793;SDS011;380;48.738;9.214;2023-04-21T14:26:23;2.55;;;1.40;;
793;SDS011;380;48.738;9.214;2023-04-21T14:28:49;2.53;;;1.67;;
793;SDS011;380;48.738;9.214;2023-04-21T14:31:15;3.38;;;1.70;;
793;SDS011;380;48.738;9.214;2023-04-21T14:33:41;3.05;;;1.80;;
793;SDS011;380;48.738;9.214;2023-04-21T14:36:07;2.35;;;1.38;;
793;SDS011;380;48.738;9.214;2023-04-21T14:38:34;2.05;;;1.33;;
793;SDS011;380;48.738;9.214;2023-04-21T14:41:00;6.47;;;2.00;;
793;SDS011;380;48.738;9.214;2023-04-21T14:43:26;3.00;;;1.60;;
793;SDS011;380;48.738;9.214;2023-04-21T14:45:52;2.45;;;1.60;;
793;SDS011;380;48.738;9.214;2023-04-21T14:48:19;4.30;;;2.15;;
793;SDS011;380;48.738;9.214;2023-04-21T14:50:45;2.75;;;1.77;;
793;SDS011;380;48.738;9.214;2023-04-21T14:53:11;2.83;;;1.70;;
793;SDS011;380;48.738;9.214;2023-04-21T14:55:37;3.28;;;1.58;;
793;SDS011;380;48.738;9.214;2023-04-21T14:58:03;3.05;;;2.00;;
793;SDS011;380;48.738;9.214;2023-04-21T15:00:29;3.45;;;2.22;;
793;SDS011;380;48.738;9.214;2023-04-21T15:02:56;2.63;;;1.80;;
793;SDS011;380;48.738;9.214;2023-04-21T15:05:22;2.88;;;1.95;;
793;SDS011;380;48.738;9.214;2023-04-21T15:07:48;2.92;;;1.70;;
793;SDS011;380;48.738;9.214;2023-04-21T15:10:14;4.13;;;2.03;;
793;SDS011;380;48.738;9.214;2023-04-21T15:12:40;2.60;;;1.70;;
793;SDS011;380;48.738;9.214;2023-04-21T15:15:07;4.50;;;2.33;;
793;SDS011;380;48.738;9.214;2023-04-21T15:17:34;4.10;;;2.03;;
793;SDS011;380;48.738;9.214;2023-04-21T15:20:00;2.90;;;2.00;;
793;SDS011;380;48.738;9.214;2023-04-21T15:22:26;3.08;;;2.10;;
793;SDS011;380;48.738;9.214;2023-04-21T15:24:52;2.33;;;1.58;;
793;SDS011;380;48.738;9.214;2023-04-21T15:27:18;3.10;;;1.77;;
793;SDS011;380;48.738;9.214;2023-04-21T15:29:44;5.97;;;2.53;;
793;SDS011;380;48.738;9.214;2023-04-21T15:32:10;2.90;;;1.90;;